createdAt,value
2022-12-01T00:00:31.184Z,0.00
2022-12-01T00:01:31.173Z,0.00
2022-12-01T00:02:30.410Z,0.00
2022-12-01T00:03:30.490Z,0.00
2022-12-01T00:04:30.193Z,0.00
2022-12-01T00:05:34.434Z,0.00
2022-12-01T00:06:30.171Z,0.00
2022-12-01T00:07:30.234Z,0.00
2022-12-01T00:08:30.166Z,0.00
2022-12-01T00:09:30.135Z,0.00
2022-12-01T00:10:33.957Z,0.00
2022-12-01T00:11:34.636Z,0.00
2022-12-01T00:12:35.044Z,0.00
2022-12-01T00:13:30.095Z,0.00
2022-12-01T00:14:30.347Z,0.00
2022-12-01T00:15:35.010Z,0.00
2022-12-01T00:16:33.947Z,0.00
2022-12-01T00:17:30.032Z,0.00
2022-12-01T00:18:30.159Z,0.00
2022-12-01T00:19:30.286Z,0.00
2022-12-01T00:20:30.268Z,0.00
2022-12-01T00:21:30.012Z,0.00
2022-12-01T00:22:29.980Z,0.00
2022-12-01T00:23:29.951Z,0.00
2022-12-01T00:24:29.984Z,0.00
2022-12-01T00:25:29.942Z,0.00
2022-12-01T00:26:29.937Z,0.00
2022-12-01T00:27:30.621Z,0.00
2022-12-01T00:28:29.921Z,0.00
2022-12-01T00:29:29.872Z,0.00
2022-12-01T00:30:30.269Z,0.00
2022-12-01T00:31:29.911Z,0.00
2022-12-01T00:32:29.853Z,0.00
2022-12-01T00:33:29.842Z,0.00
2022-12-01T00:34:29.889Z,0.00
2022-12-01T00:35:29.814Z,0.00
2022-12-01T00:36:30.122Z,0.00
2022-12-01T00:37:29.797Z,0.00
2022-12-01T00:38:29.790Z,0.00
2022-12-01T00:39:31.005Z,0.00
2022-12-01T00:40:30.059Z,0.00
2022-12-01T00:41:30.697Z,0.00
2022-12-01T00:42:29.852Z,0.00
2022-12-01T00:43:33.868Z,0.00
2022-12-01T00:44:30.375Z,0.00
2022-12-01T00:45:29.686Z,0.00
2022-12-01T00:46:30.727Z,0.00
2022-12-01T00:47:29.677Z,0.00
2022-12-01T00:48:29.656Z,0.00
2022-12-01T00:49:34.306Z,0.00
2022-12-01T00:50:29.641Z,0.00
2022-12-01T00:51:29.638Z,0.00
2022-12-01T00:52:29.888Z,0.00
2022-12-01T00:53:29.624Z,0.00
2022-12-01T00:54:30.451Z,0.00
2022-12-01T00:55:29.580Z,0.00
2022-12-01T00:56:29.579Z,0.00
2022-12-01T00:57:29.809Z,0.00
2022-12-01T00:58:33.441Z,0.00
2022-12-01T00:59:29.530Z,0.00
2022-12-01T01:00:29.699Z,0.00
2022-12-01T01:01:29.618Z,0.00
2022-12-01T01:02:29.574Z,0.00
2022-12-01T01:03:29.497Z,0.00
2022-12-01T01:04:29.491Z,0.00
2022-12-01T01:05:30.238Z,0.00
2022-12-01T01:06:29.431Z,0.00
2022-12-01T01:07:29.718Z,0.00
2022-12-01T01:08:29.392Z,0.00
2022-12-01T01:09:29.406Z,0.00
2022-12-01T01:10:29.401Z,0.00
2022-12-01T01:11:30.084Z,0.00
2022-12-01T01:12:29.360Z,0.00
2022-12-01T01:13:29.339Z,0.00
2022-12-01T01:14:29.332Z,0.00
2022-12-01T01:15:29.425Z,0.00
2022-12-01T01:16:29.342Z,0.00
2022-12-01T01:17:29.349Z,0.00
2022-12-01T01:18:29.559Z,0.00
2022-12-01T01:19:29.286Z,0.00
2022-12-01T01:20:29.255Z,0.00
2022-12-01T01:21:29.294Z,0.00
2022-12-01T01:22:33.186Z,0.00
2022-12-01T01:23:29.226Z,0.00
2022-12-01T01:24:29.205Z,0.00
2022-12-01T01:25:29.196Z,0.00
2022-12-01T01:26:29.178Z,0.00
2022-12-01T01:27:29.220Z,0.00
2022-12-01T01:28:29.156Z,0.00
2022-12-01T01:29:30.096Z,0.00
2022-12-01T01:30:29.162Z,0.00
2022-12-01T01:31:29.147Z,0.00
2022-12-01T01:32:32.988Z,0.00
2022-12-01T01:33:29.188Z,0.00
2022-12-01T01:34:29.097Z,0.00
2022-12-01T01:35:29.076Z,0.00
2022-12-01T01:36:29.055Z,0.00
2022-12-01T01:37:29.059Z,0.00
2022-12-01T01:38:29.039Z,0.00
2022-12-01T01:39:41.027Z,0.00
2022-12-01T01:40:29.019Z,0.00
2022-12-01T01:41:29.009Z,0.00
2022-12-01T01:42:28.979Z,0.00
2022-12-01T01:43:29.026Z,0.00
2022-12-01T01:44:29.305Z,0.00
2022-12-01T01:45:28.950Z,0.00
2022-12-01T01:46:29.256Z,0.00
2022-12-01T01:47:28.922Z,0.00
2022-12-01T01:48:28.903Z,0.00
2022-12-01T01:49:28.910Z,0.00
2022-12-01T01:50:28.912Z,0.00
2022-12-01T01:51:29.832Z,0.00
2022-12-01T01:52:28.854Z,0.00
2022-12-01T01:53:29.133Z,0.00
2022-12-01T01:54:28.853Z,0.00
2022-12-01T01:55:28.826Z,0.00
2022-12-01T01:56:28.833Z,0.00
2022-12-01T01:57:28.804Z,0.00
2022-12-01T01:58:28.784Z,0.00
2022-12-01T01:59:28.794Z,0.00
2022-12-01T02:00:28.806Z,0.00
2022-12-01T02:01:28.786Z,0.00
2022-12-01T02:02:28.884Z,0.00
2022-12-01T02:03:28.987Z,0.00
2022-12-01T02:04:28.714Z,0.00
2022-12-01T02:05:28.707Z,0.00
2022-12-01T02:06:28.978Z,0.00
2022-12-01T02:07:28.750Z,0.00
2022-12-01T02:08:28.681Z,0.00
2022-12-01T02:09:32.514Z,0.00
2022-12-01T02:10:28.645Z,0.00
2022-12-01T02:11:30.368Z,0.00
2022-12-01T02:12:29.597Z,0.00
2022-12-01T02:13:28.868Z,0.00
2022-12-01T02:14:28.618Z,0.00
2022-12-01T02:15:29.316Z,0.00
2022-12-01T02:16:40.570Z,0.00
2022-12-01T02:17:28.842Z,0.00
2022-12-01T02:18:28.539Z,0.00
2022-12-01T02:19:28.758Z,0.00
2022-12-01T02:20:29.421Z,0.00
2022-12-01T02:21:28.799Z,0.00
2022-12-01T02:22:28.792Z,0.00
2022-12-01T02:23:29.506Z,0.00
2022-12-01T02:24:29.143Z,0.00
2022-12-01T02:25:30.282Z,0.00
2022-12-01T02:26:29.281Z,0.00
2022-12-01T02:27:32.584Z,0.00
2022-12-01T02:28:28.422Z,0.00
2022-12-01T02:29:28.422Z,0.00
2022-12-01T02:30:32.602Z,0.00
2022-12-01T02:31:28.382Z,0.00
2022-12-01T02:32:28.422Z,0.00
2022-12-01T02:33:29.364Z,0.00
2022-12-01T02:34:29.315Z,0.00
2022-12-01T02:35:32.326Z,0.00
2022-12-01T02:36:28.434Z,0.00
2022-12-01T02:37:29.275Z,0.00
2022-12-01T02:38:28.554Z,0.00
2022-12-01T02:39:32.193Z,0.00
2022-12-01T02:40:33.125Z,0.00
2022-12-01T02:41:28.966Z,0.00
2022-12-01T02:42:28.265Z,0.00
2022-12-01T02:43:28.250Z,0.00
2022-12-01T02:44:28.534Z,0.00
2022-12-01T02:45:28.257Z,0.00
2022-12-01T02:46:28.308Z,0.00
2022-12-01T02:47:32.038Z,0.00
2022-12-01T02:48:28.197Z,0.00
2022-12-01T02:49:28.468Z,0.00
2022-12-01T02:50:28.177Z,0.00
2022-12-01T02:51:28.140Z,0.00
2022-12-01T02:52:28.120Z,0.00
2022-12-01T02:53:28.439Z,0.00
2022-12-01T02:54:29.069Z,0.00
2022-12-01T02:55:28.088Z,0.00
2022-12-01T02:56:28.079Z,0.00
2022-12-01T02:57:28.077Z,0.00
2022-12-01T02:58:28.050Z,0.00
2022-12-01T02:59:28.860Z,0.00
2022-12-01T03:00:31.970Z,0.00
2022-12-01T03:01:28.099Z,0.00
2022-12-01T03:02:28.025Z,0.00
2022-12-01T03:03:28.003Z,0.00
2022-12-01T03:04:27.981Z,0.00
2022-12-01T03:05:27.983Z,0.00
2022-12-01T03:06:27.972Z,0.00
2022-12-01T03:07:28.929Z,0.00
2022-12-01T03:08:27.922Z,0.00
2022-12-01T03:09:27.949Z,0.00
2022-12-01T03:10:27.905Z,0.00
2022-12-01T03:11:27.899Z,0.00
2022-12-01T03:12:28.232Z,0.00
2022-12-01T03:13:28.831Z,0.00
2022-12-01T03:14:27.844Z,0.00
2022-12-01T03:15:27.863Z,0.00
2022-12-01T03:16:27.900Z,0.00
2022-12-01T03:17:28.101Z,0.00
2022-12-01T03:18:28.695Z,0.00
2022-12-01T03:19:27.795Z,0.00
2022-12-01T03:20:27.775Z,0.00
2022-12-01T03:21:31.760Z,0.00
2022-12-01T03:22:28.726Z,0.00
2022-12-01T03:23:27.745Z,0.00
2022-12-01T03:24:27.764Z,0.00
2022-12-01T03:25:27.778Z,0.00
2022-12-01T03:26:28.407Z,0.00
2022-12-01T03:27:27.703Z,0.00
2022-12-01T03:28:27.679Z,0.00
2022-12-01T03:29:27.667Z,0.00
2022-12-01T03:30:28.639Z,0.00
2022-12-01T03:31:27.973Z,0.00
2022-12-01T03:32:27.639Z,0.00
2022-12-01T03:33:27.619Z,0.00
2022-12-01T03:34:27.608Z,0.00
2022-12-01T03:35:27.602Z,0.00
2022-12-01T03:36:27.642Z,0.00
2022-12-01T03:37:27.592Z,0.00
2022-12-01T03:38:27.572Z,0.00
2022-12-01T03:39:27.555Z,0.00
2022-12-01T03:40:27.542Z,0.00
2022-12-01T03:41:27.559Z,0.00
2022-12-01T03:42:27.902Z,0.00
2022-12-01T03:43:27.501Z,0.00
2022-12-01T03:44:29.222Z,0.00
2022-12-01T03:45:27.481Z,0.00
2022-12-01T03:46:27.517Z,0.00
2022-12-01T03:47:28.901Z,0.00
2022-12-01T03:48:27.472Z,0.00
2022-12-01T03:49:28.443Z,0.00
2022-12-01T03:50:27.411Z,0.00
2022-12-01T03:51:30.913Z,0.00
2022-12-01T03:52:27.383Z,0.00
2022-12-01T03:53:27.381Z,0.00
2022-12-01T03:54:33.182Z,0.00
2022-12-01T03:55:32.324Z,0.00
2022-12-01T03:56:28.085Z,0.00
2022-12-01T03:57:28.254Z,0.00
2022-12-01T03:58:27.327Z,0.00
2022-12-01T03:59:28.095Z,0.00
2022-12-01T04:00:28.063Z,0.00
2022-12-01T04:01:27.296Z,0.00
2022-12-01T04:02:27.315Z,0.00
2022-12-01T04:03:27.274Z,0.00
2022-12-01T04:04:28.004Z,0.00
2022-12-01T04:05:27.916Z,0.00
2022-12-01T04:06:32.300Z,0.00
2022-12-01T04:07:27.233Z,0.00
2022-12-01T04:08:27.187Z,0.00
2022-12-01T04:09:27.184Z,0.00
2022-12-01T04:10:27.165Z,0.00
2022-12-01T04:11:32.148Z,0.00
2022-12-01T04:12:28.419Z,0.00
2022-12-01T04:13:27.899Z,0.00
2022-12-01T04:14:27.120Z,0.00
2022-12-01T04:15:27.860Z,0.00
2022-12-01T04:16:27.214Z,0.00
2022-12-01T04:17:30.873Z,0.00
2022-12-01T04:18:27.099Z,0.00
2022-12-01T04:19:27.085Z,0.00
2022-12-01T04:20:27.355Z,0.00
2022-12-01T04:21:31.363Z,0.00
2022-12-01T04:22:27.765Z,0.00
2022-12-01T04:23:30.911Z,0.00
2022-12-01T04:24:27.003Z,0.00
2022-12-01T04:25:28.009Z,0.00
2022-12-01T04:26:26.982Z,0.00
2022-12-01T04:27:26.961Z,0.00
2022-12-01T04:28:26.935Z,0.00
2022-12-01T04:29:27.063Z,0.00
2022-12-01T04:30:27.732Z,0.00
2022-12-01T04:31:27.021Z,0.00
2022-12-01T04:32:26.890Z,0.00
2022-12-01T04:33:28.676Z,0.00
2022-12-01T04:34:32.414Z,0.00
2022-12-01T04:35:26.894Z,0.00
2022-12-01T04:36:27.121Z,0.00
2022-12-01T04:37:26.838Z,0.00
2022-12-01T04:38:30.503Z,0.00
2022-12-01T04:39:26.848Z,0.00
2022-12-01T04:40:26.795Z,0.00
2022-12-01T04:41:27.006Z,0.00
2022-12-01T04:42:26.840Z,0.00
2022-12-01T04:43:26.758Z,0.00
2022-12-01T04:44:32.979Z,0.00
2022-12-01T04:45:28.107Z,0.00
2022-12-01T04:46:26.763Z,0.00
2022-12-01T04:47:30.664Z,0.00
2022-12-01T04:48:30.566Z,0.00
2022-12-01T04:49:27.630Z,0.00
2022-12-01T04:50:26.937Z,0.00
2022-12-01T04:51:29.480Z,0.00
2022-12-01T04:52:29.471Z,0.00
2022-12-01T04:53:27.941Z,0.00
2022-12-01T04:54:30.757Z,0.00
2022-12-01T04:55:27.590Z,0.00
2022-12-01T04:56:30.818Z,0.00
2022-12-01T04:57:26.849Z,0.00
2022-12-01T04:58:26.782Z,0.00
2022-12-01T04:59:27.689Z,0.00
2022-12-01T05:00:31.738Z,0.00
2022-12-01T05:01:27.781Z,0.00
2022-12-01T05:02:26.624Z,0.00
2022-12-01T05:03:26.520Z,0.00
2022-12-01T05:04:27.521Z,0.00
2022-12-01T05:05:27.191Z,0.00
2022-12-01T05:06:26.472Z,0.00
2022-12-01T05:07:26.738Z,0.00
2022-12-01T05:08:26.723Z,0.00
2022-12-01T05:09:26.456Z,0.00
2022-12-01T05:10:27.392Z,0.00
2022-12-01T05:11:27.114Z,0.00
2022-12-01T05:12:26.825Z,0.00
2022-12-01T05:13:26.843Z,0.00
2022-12-01T05:14:26.373Z,0.00
2022-12-01T05:15:26.934Z,0.00
2022-12-01T05:16:26.435Z,0.00
2022-12-01T05:17:26.626Z,0.00
2022-12-01T05:18:26.375Z,0.00
2022-12-01T05:19:26.572Z,0.00
2022-12-01T05:20:27.265Z,0.00
2022-12-01T05:21:30.228Z,0.00
2022-12-01T05:23:03.383Z,0.00
2022-12-01T05:23:27.296Z,0.00
2022-12-01T05:24:26.526Z,0.00
2022-12-01T05:25:26.626Z,0.00
2022-12-01T05:26:26.837Z,0.00
2022-12-01T05:27:26.476Z,0.00
2022-12-01T05:28:26.210Z,0.00
2022-12-01T05:29:26.207Z,0.00
2022-12-01T05:30:28.829Z,0.00
2022-12-01T05:31:26.218Z,0.00
2022-12-01T05:32:26.158Z,0.00
2022-12-01T05:33:27.098Z,0.00
2022-12-01T05:34:26.198Z,0.00
2022-12-01T05:35:26.214Z,0.00
2022-12-01T05:36:26.111Z,0.00
2022-12-01T05:37:26.089Z,0.00
2022-12-01T05:38:26.844Z,0.00
2022-12-01T05:39:26.112Z,0.00
2022-12-01T05:40:26.111Z,0.00
2022-12-01T05:41:26.100Z,0.00
2022-12-01T05:42:26.037Z,0.00
2022-12-01T05:43:30.149Z,0.00
2022-12-01T05:44:27.970Z,0.00
2022-12-01T05:45:29.989Z,0.00
2022-12-01T05:46:26.203Z,0.00
2022-12-01T05:47:30.024Z,0.00
2022-12-01T05:48:25.979Z,0.00
2022-12-01T05:49:26.091Z,0.00
2022-12-01T05:50:26.107Z,0.00
2022-12-01T05:51:25.928Z,0.00
2022-12-01T05:52:25.913Z,0.00
2022-12-01T05:53:25.946Z,0.00
2022-12-01T05:54:25.978Z,0.00
2022-12-01T05:55:26.837Z,0.00
2022-12-01T05:56:25.882Z,0.00
2022-12-01T05:57:26.064Z,0.00
2022-12-01T05:58:26.096Z,0.00
2022-12-01T05:59:26.843Z,0.00
2022-12-01T06:00:26.065Z,0.00
2022-12-01T06:01:26.086Z,0.00
2022-12-01T06:02:26.114Z,0.00
2022-12-01T06:03:26.088Z,0.00
2022-12-01T06:04:25.978Z,0.00
2022-12-01T06:05:26.564Z,0.00
2022-12-01T06:06:25.727Z,0.00
2022-12-01T06:07:26.178Z,0.00
2022-12-01T06:08:27.537Z,0.00
2022-12-01T06:09:26.085Z,0.00
2022-12-01T06:10:25.685Z,0.00
2022-12-01T06:11:26.079Z,0.00
2022-12-01T06:12:25.911Z,0.00
2022-12-01T06:13:26.077Z,0.00
2022-12-01T06:14:26.079Z,0.00
2022-12-01T06:15:26.158Z,0.00
2022-12-01T06:16:26.099Z,0.00
2022-12-01T06:17:26.079Z,0.00
2022-12-01T06:18:26.075Z,0.00
2022-12-01T06:19:25.579Z,0.00
2022-12-01T06:20:26.071Z,0.00
2022-12-01T06:21:26.067Z,0.00
2022-12-01T06:22:25.529Z,0.00
2022-12-01T06:23:30.182Z,0.00
2022-12-01T06:24:30.568Z,0.00
2022-12-01T06:25:25.514Z,0.00
2022-12-01T06:26:25.474Z,0.00
2022-12-01T06:27:31.293Z,0.00
2022-12-01T06:28:26.416Z,0.00
2022-12-01T06:29:26.062Z,0.00
2022-12-01T06:30:26.075Z,0.00
2022-12-01T06:31:26.112Z,0.00
2022-12-01T06:32:25.545Z,0.00
2022-12-01T06:33:26.010Z,0.00
2022-12-01T06:34:29.344Z,0.00
2022-12-01T06:35:25.673Z,0.00
2022-12-01T06:36:25.752Z,0.00
2022-12-01T06:37:25.794Z,0.00
2022-12-01T06:38:31.004Z,0.00
2022-12-01T06:39:25.834Z,0.00
2022-12-01T06:40:26.069Z,0.00
2022-12-01T06:41:26.005Z,0.00
2022-12-01T06:42:25.425Z,1.00
2022-12-01T06:43:25.756Z,1.00
2022-12-01T06:44:25.268Z,1.00
2022-12-01T06:45:25.295Z,0.00
2022-12-01T06:46:25.347Z,0.00
2022-12-01T06:47:25.397Z,0.00
2022-12-01T06:48:25.381Z,2.00
2022-12-01T06:49:25.397Z,2.00
2022-12-01T06:50:25.416Z,0.00
2022-12-01T06:51:25.407Z,0.00
2022-12-01T06:52:25.478Z,4.00
2022-12-01T06:53:25.508Z,0.00
2022-12-01T06:54:25.536Z,2.00
2022-12-01T06:55:25.198Z,1.00
2022-12-01T06:56:25.391Z,1.00
2022-12-01T06:57:25.548Z,5.00
2022-12-01T06:58:25.659Z,3.00
2022-12-01T06:59:25.680Z,9.00
2022-12-01T07:00:25.188Z,9.00
2022-12-01T07:01:25.388Z,18.00
2022-12-01T07:02:25.453Z,14.00
2022-12-01T07:03:25.487Z,14.00
2022-12-01T07:04:25.594Z,18.00
2022-12-01T07:05:25.131Z,25.00
2022-12-01T07:06:25.361Z,25.00
2022-12-01T07:07:25.065Z,27.00
2022-12-01T07:08:25.782Z,25.00
2022-12-01T07:09:25.761Z,23.00
2022-12-01T07:10:25.755Z,32.00
2022-12-01T07:11:24.980Z,34.00
2022-12-01T07:12:25.062Z,34.00
2022-12-01T07:13:30.084Z,39.00
2022-12-01T07:14:25.932Z,41.00
2022-12-01T07:15:25.348Z,48.00
2022-12-01T07:16:25.690Z,37.00
2022-12-01T07:17:25.734Z,59.00
2022-12-01T07:18:24.934Z,57.00
2022-12-01T07:19:25.034Z,53.00
2022-12-01T07:20:25.299Z,57.00
2022-12-01T07:21:25.145Z,62.00
2022-12-01T07:22:31.035Z,68.00
2022-12-01T07:23:25.804Z,79.00
2022-12-01T07:24:25.045Z,85.00
2022-12-01T07:25:25.085Z,90.00
2022-12-01T07:26:25.236Z,87.00
2022-12-01T07:27:25.420Z,91.00
2022-12-01T07:28:25.525Z,98.00
2022-12-01T07:29:25.777Z,106.00
2022-12-01T07:30:28.525Z,127.00
2022-12-01T07:31:25.701Z,127.00
2022-12-01T07:32:24.679Z,118.00
2022-12-01T07:33:24.638Z,134.00
2022-12-01T07:34:25.466Z,134.00
2022-12-01T07:35:36.019Z,147.00
2022-12-01T07:36:24.610Z,144.00
2022-12-01T07:37:24.771Z,129.00
2022-12-01T07:38:25.249Z,130.00
2022-12-01T07:39:24.589Z,134.00
2022-12-01T07:40:25.272Z,154.00
2022-12-01T07:41:25.542Z,181.00
2022-12-01T07:42:24.571Z,170.00
2022-12-01T07:43:24.622Z,170.00
2022-12-01T07:44:24.517Z,178.00
2022-12-01T07:45:24.510Z,193.00
2022-12-01T07:46:24.667Z,196.00
2022-12-01T07:47:24.913Z,195.00
2022-12-01T07:48:24.580Z,186.00
2022-12-01T07:49:24.520Z,203.00
2022-12-01T07:50:24.492Z,190.00
2022-12-01T07:51:24.622Z,195.00
2022-12-01T07:52:24.564Z,206.00
2022-12-01T07:53:24.640Z,214.00
2022-12-01T07:54:24.677Z,199.00
2022-12-01T07:55:24.691Z,232.00
2022-12-01T07:56:24.701Z,206.00
2022-12-01T07:57:24.354Z,224.00
2022-12-01T07:58:24.563Z,240.00
2022-12-01T07:59:24.745Z,247.00
2022-12-01T08:00:24.638Z,273.00
2022-12-01T08:01:24.846Z,273.00
2022-12-01T08:02:24.843Z,310.00
2022-12-01T08:03:24.326Z,312.00
2022-12-01T08:04:24.814Z,302.00
2022-12-01T08:05:24.473Z,290.00
2022-12-01T08:06:25.204Z,316.00
2022-12-01T08:07:29.554Z,374.00
2022-12-01T08:08:26.188Z,367.00
2022-12-01T08:09:24.253Z,377.00
2022-12-01T08:10:24.292Z,368.00
2022-12-01T08:11:24.456Z,379.00
2022-12-01T08:12:24.346Z,421.00
2022-12-01T08:13:24.433Z,441.00
2022-12-01T08:14:24.559Z,426.00
2022-12-01T08:15:24.709Z,404.00
2022-12-01T08:16:24.219Z,411.00
2022-12-01T08:17:26.152Z,402.00
2022-12-01T08:18:27.977Z,429.00
2022-12-01T08:19:26.118Z,435.00
2022-12-01T08:20:24.315Z,463.00
2022-12-01T08:21:24.111Z,496.00
2022-12-01T08:22:24.260Z,481.00
2022-12-01T08:23:29.021Z,512.00
2022-12-01T08:24:24.331Z,550.00
2022-12-01T08:25:24.987Z,624.00
2022-12-01T08:26:24.866Z,673.00
2022-12-01T08:27:24.288Z,718.00
2022-12-01T08:28:23.981Z,741.00
2022-12-01T08:29:24.301Z,719.00
2022-12-01T08:30:24.160Z,745.00
2022-12-01T08:31:24.040Z,745.00
2022-12-01T08:32:23.972Z,685.00
2022-12-01T08:33:24.004Z,636.00
2022-12-01T08:34:23.983Z,629.00
2022-12-01T08:35:23.963Z,619.00
2022-12-01T08:36:23.980Z,643.00
2022-12-01T08:37:23.963Z,663.00
2022-12-01T08:38:24.194Z,632.00
2022-12-01T08:39:23.982Z,629.00
2022-12-01T08:40:24.070Z,628.00
2022-12-01T08:41:24.008Z,664.00
2022-12-01T08:42:23.968Z,659.00
2022-12-01T08:44:25.274Z,678.00
2022-12-01T08:45:24.075Z,690.00
2022-12-01T08:46:24.017Z,704.00
2022-12-01T08:47:24.246Z,743.00
2022-12-01T08:48:23.955Z,779.00
2022-12-01T08:49:23.955Z,782.00
2022-12-01T08:50:24.066Z,794.00
2022-12-01T08:51:24.016Z,786.00
2022-12-01T08:52:23.707Z,822.00
2022-12-01T08:53:23.719Z,837.00
2022-12-01T08:54:27.695Z,974.00
2022-12-01T08:55:24.050Z,1071.00
2022-12-01T08:56:23.654Z,910.00
2022-12-01T08:57:32.907Z,813.00
2022-12-01T08:58:23.951Z,856.00
2022-12-01T08:59:23.879Z,778.00
2022-12-01T09:00:23.657Z,714.00
2022-12-01T09:01:23.686Z,812.00
2022-12-01T09:02:23.774Z,762.00
2022-12-01T09:03:23.692Z,738.00
2022-12-01T09:04:23.549Z,680.00
2022-12-01T09:05:23.702Z,639.00
2022-12-01T09:06:24.451Z,646.00
2022-12-01T09:07:26.865Z,706.00
2022-12-01T09:08:23.743Z,723.00
2022-12-01T09:09:23.603Z,661.00
2022-12-01T09:10:23.503Z,611.00
2022-12-01T09:11:23.790Z,645.00
2022-12-01T09:12:24.442Z,726.00
2022-12-01T09:13:23.442Z,826.00
2022-12-01T09:14:23.439Z,1000.00
2022-12-01T09:15:23.484Z,1138.00
2022-12-01T09:16:23.515Z,1254.00
2022-12-01T09:17:23.533Z,1298.00
2022-12-01T09:18:23.406Z,1346.00
2022-12-01T09:19:24.996Z,1383.00
2022-12-01T09:20:24.149Z,1346.00
2022-12-01T09:21:23.360Z,1269.00
2022-12-01T09:22:23.524Z,1210.00
2022-12-01T09:23:23.354Z,1219.00
2022-12-01T09:24:23.516Z,1189.00
2022-12-01T09:25:23.324Z,1205.00
2022-12-01T09:26:23.686Z,1286.00
2022-12-01T09:27:23.423Z,1256.00
2022-12-01T09:28:23.564Z,1188.00
2022-12-01T09:29:23.486Z,1109.00
2022-12-01T09:30:23.215Z,1241.00
2022-12-01T09:31:23.239Z,1374.00
2022-12-01T09:32:23.188Z,1519.00
2022-12-01T09:33:23.237Z,1553.00
2022-12-01T09:34:23.235Z,1492.00
2022-12-01T09:35:23.686Z,1524.00
2022-12-01T09:36:23.227Z,1611.00
2022-12-01T09:37:23.191Z,1645.00
2022-12-01T09:38:23.200Z,1634.00
2022-12-01T09:39:23.108Z,1578.00
2022-12-01T09:40:23.219Z,1517.00
2022-12-01T09:41:23.472Z,1495.00
2022-12-01T09:42:23.170Z,1505.00
2022-12-01T09:43:23.201Z,1518.00
2022-12-01T09:44:23.187Z,1542.00
2022-12-01T09:45:23.041Z,1597.00
2022-12-01T09:46:23.244Z,1622.00
2022-12-01T09:47:23.925Z,1635.00
2022-12-01T09:48:23.231Z,1626.00
2022-12-01T09:49:23.173Z,1623.00
2022-12-01T09:50:23.170Z,1623.00
2022-12-01T09:51:23.132Z,1584.00
2022-12-01T09:52:22.954Z,1564.00
2022-12-01T09:53:22.957Z,1585.00
2022-12-01T09:54:23.006Z,1546.00
2022-12-01T09:55:23.174Z,1427.00
2022-12-01T09:56:22.882Z,1337.00
2022-12-01T09:57:22.936Z,1359.00
2022-12-01T09:58:22.941Z,1383.00
2022-12-01T09:59:23.915Z,1440.00
2022-12-01T10:00:23.224Z,1499.00
2022-12-01T10:01:27.136Z,1585.00
2022-12-01T10:02:22.862Z,1669.00
2022-12-01T10:03:23.774Z,1741.00
2022-12-01T10:04:23.225Z,1739.00
2022-12-01T10:05:22.886Z,1713.00
2022-12-01T10:06:27.776Z,1736.00
2022-12-01T10:07:24.036Z,1729.00
2022-12-01T10:08:26.931Z,1752.00
2022-12-01T10:09:23.174Z,1812.00
2022-12-01T10:10:22.767Z,1952.00
2022-12-01T10:11:23.178Z,2074.00
2022-12-01T10:12:22.718Z,2164.00
2022-12-01T10:13:23.157Z,2177.00
2022-12-01T10:14:22.647Z,2133.00
2022-12-01T10:15:22.740Z,2143.00
2022-12-01T10:16:22.802Z,2147.00
2022-12-01T10:17:22.769Z,2179.00
2022-12-01T10:18:26.529Z,2231.00
2022-12-01T10:19:28.230Z,2257.00
2022-12-01T10:20:22.758Z,2201.00
2022-12-01T10:21:22.670Z,2132.00
2022-12-01T10:22:22.852Z,2059.00
2022-12-01T10:23:22.797Z,2085.00
2022-12-01T10:24:22.540Z,2148.00
2022-12-01T10:25:22.801Z,2205.00
2022-12-01T10:26:22.569Z,2218.00
2022-12-01T10:27:22.515Z,2206.00
2022-12-01T10:28:22.645Z,2100.00
2022-12-01T10:29:22.466Z,2015.00
2022-12-01T10:30:22.660Z,2027.00
2022-12-01T10:31:22.563Z,2085.00
2022-12-01T10:32:22.478Z,2149.00
2022-12-01T10:33:22.908Z,2094.00
2022-12-01T10:34:22.706Z,2053.00
2022-12-01T10:35:22.656Z,2214.00
2022-12-01T10:36:22.616Z,2371.00
2022-12-01T10:37:22.883Z,2442.00
2022-12-01T10:38:22.688Z,2439.00
2022-12-01T10:39:22.606Z,2575.00
2022-12-01T10:40:22.755Z,2783.00
2022-12-01T10:41:22.632Z,3033.00
2022-12-01T10:42:22.420Z,3173.00
2022-12-01T10:43:22.478Z,3187.00
2022-12-01T10:44:22.279Z,3172.00
2022-12-01T10:45:22.484Z,3195.00
2022-12-01T10:46:22.396Z,3336.00
2022-12-01T10:47:23.062Z,3364.00
2022-12-01T10:48:22.427Z,3265.00
2022-12-01T10:49:23.175Z,3181.00
2022-12-01T10:50:23.018Z,3156.00
2022-12-01T10:51:22.192Z,3184.00
2022-12-01T10:52:22.961Z,3256.00
2022-12-01T10:53:22.611Z,3336.00
2022-12-01T10:54:22.183Z,3503.00
2022-12-01T10:55:22.411Z,3703.00
2022-12-01T10:56:22.143Z,3862.00
2022-12-01T10:57:22.272Z,3959.00
2022-12-01T10:58:22.194Z,3995.00
2022-12-01T10:59:22.152Z,3989.00
2022-12-01T11:00:57.418Z,3950.00
2022-12-01T11:01:24.078Z,3844.00
2022-12-01T11:02:22.307Z,3752.00
2022-12-01T11:03:22.672Z,3675.00
2022-12-01T11:04:22.124Z,3676.00
2022-12-01T11:05:22.334Z,3640.00
2022-12-01T11:06:22.004Z,3603.00
2022-12-01T11:07:22.526Z,3583.00
2022-12-01T11:08:22.927Z,3481.00
2022-12-01T11:09:26.188Z,3297.00
2022-12-01T11:10:22.234Z,3018.00
2022-12-01T11:11:22.295Z,2696.00
2022-12-01T11:12:22.207Z,2411.00
2022-12-01T11:13:22.487Z,2156.00
2022-12-01T11:14:22.205Z,1938.00
2022-12-01T11:15:22.097Z,1907.00
2022-12-01T11:16:22.252Z,2044.00
2022-12-01T11:17:22.696Z,2182.00
2022-12-01T11:18:22.809Z,2237.00
2022-12-01T11:19:26.880Z,2322.00
2022-12-01T11:20:23.164Z,2477.00
2022-12-01T11:21:22.778Z,2576.00
2022-12-01T11:22:22.149Z,2574.00
2022-12-01T11:23:21.832Z,2460.00
2022-12-01T11:24:22.611Z,2309.00
2022-12-01T11:25:22.743Z,2198.00
2022-12-01T11:26:22.710Z,2110.00
2022-12-01T11:27:23.210Z,2034.00
2022-12-01T11:28:32.258Z,1961.00
2022-12-01T11:29:21.739Z,1892.00
2022-12-01T11:30:21.710Z,1858.00
2022-12-01T11:31:21.784Z,1907.00
2022-12-01T11:32:22.631Z,2102.00
2022-12-01T11:33:21.763Z,2311.00
2022-12-01T11:34:21.790Z,2423.00
2022-12-01T11:35:21.848Z,2433.00
2022-12-01T11:36:21.753Z,2397.00
2022-12-01T11:37:22.592Z,2294.00
2022-12-01T11:38:30.096Z,2196.00
2022-12-01T11:39:23.132Z,2200.00
2022-12-01T11:40:23.577Z,2303.00
2022-12-01T11:41:21.814Z,2415.00
2022-12-01T11:42:22.525Z,2494.00
2022-12-01T11:43:21.556Z,2551.00
2022-12-01T11:44:49.634Z,2649.00
2022-12-01T11:45:22.754Z,2744.00
2022-12-01T11:46:21.896Z,2873.00
2022-12-01T11:47:23.581Z,2963.00
2022-12-01T11:48:21.728Z,2943.00
2022-12-01T11:49:21.645Z,2823.00
2022-12-01T11:50:21.809Z,2648.00
2022-12-01T11:51:21.537Z,2511.00
2022-12-01T11:52:21.808Z,2457.00
2022-12-01T11:53:21.810Z,2453.00
2022-12-01T11:54:21.507Z,2393.00
2022-12-01T11:55:21.567Z,2334.00
2022-12-01T11:56:21.798Z,2302.00
2022-12-01T11:57:37.403Z,2261.00
2022-12-01T11:58:22.438Z,2229.00
2022-12-01T11:59:21.369Z,2187.00
2022-12-01T12:00:21.527Z,2146.00
2022-12-01T12:01:22.410Z,2122.00
2022-12-01T12:02:21.467Z,2151.00
2022-12-01T12:03:21.722Z,2170.00
2022-12-01T12:04:21.800Z,2189.00
2022-12-01T12:05:21.804Z,2202.00
2022-12-01T12:07:23.132Z,2255.00
2022-12-01T12:08:21.809Z,2354.00
2022-12-01T12:09:21.610Z,2440.00
2022-12-01T12:10:21.340Z,2534.00
2022-12-01T12:11:21.404Z,2636.00
2022-12-01T12:12:22.024Z,2729.00
2022-12-01T12:13:21.526Z,2787.00
2022-12-01T12:14:21.283Z,2736.00
2022-12-01T12:15:21.430Z,2581.00
2022-12-01T12:16:22.505Z,2408.00
2022-12-01T12:17:22.060Z,2259.00
2022-12-01T12:18:22.216Z,2214.00
2022-12-01T12:19:25.384Z,2205.00
2022-12-01T12:20:22.528Z,2190.00
2022-12-01T12:21:21.684Z,2202.00
2022-12-01T12:22:21.254Z,2166.00
2022-12-01T12:23:21.285Z,2117.00
2022-12-01T12:24:21.634Z,2031.00
2022-12-01T12:25:21.786Z,1957.00
2022-12-01T12:26:21.484Z,1883.00
2022-12-01T12:27:21.017Z,1749.00
2022-12-01T12:28:21.021Z,1636.00
2022-12-01T12:29:21.006Z,1551.00
2022-12-01T12:30:20.980Z,1480.00
2022-12-01T12:31:21.047Z,1421.00
2022-12-01T12:32:22.341Z,1366.00
2022-12-01T12:33:20.948Z,1327.00
2022-12-01T12:34:21.095Z,1267.00
2022-12-01T12:35:20.937Z,1216.00
2022-12-01T12:36:21.006Z,1195.00
2022-12-01T12:37:23.298Z,1168.00
2022-12-01T12:38:21.001Z,1157.00
2022-12-01T12:39:21.003Z,1134.00
2022-12-01T12:40:21.835Z,1122.00
2022-12-01T12:41:20.848Z,1123.00
2022-12-01T12:42:24.742Z,1135.00
2022-12-01T12:43:20.821Z,1198.00
2022-12-01T12:44:21.769Z,1281.00
2022-12-01T12:45:20.895Z,1308.00
2022-12-01T12:46:21.106Z,1303.00
2022-12-01T12:47:24.549Z,1306.00
2022-12-01T12:48:20.941Z,1304.00
2022-12-01T12:49:21.195Z,1312.00
2022-12-01T12:50:20.961Z,1335.00